East Pine, Canada
Current Conditions -  °F | °C
As of 1:00 PM on Thursday 18 Dec 2014 (Local Time) from CYDQ Reporting Station
Overcast Overcast  
Wind Chill:   Ceiling: 5500
Heat Index: 16°   Visibility: 9mi
Dew Point: 14°   Wind: 8mph
Humidity: 93%   Direction: 80°E
Pressure: 29.74"   Gusts: NA
Location:  55.72°N, 121.18°W
Report Text: CYDQ 182000Z AUTO 08007KT 9SM OVC055 M09/M10 A2974 RMK SLP119
Loading
Personal Weather Stations






























Interactive Weather Map New forecast layout! Learn more

10-Day Weather Forecast

Advertisements
Track Severe Weather on mobile